Zehner, Canada
Current Conditions -  °F | °C
As of 12:00 AM on Saturday 20 Dec 2014 (Local Time) from CYQR Reporting Station
Moderate Fog Moderate Fog  
Wind Chill:   Ceiling: 200
Heat Index: 16°   Visibility: 0.37mi
Dew Point: 14°   Wind: 13mph
Humidity: 93%   Direction: 130°SE
Pressure: 29.89"   Gusts: NA
Location:  50.57°N, 104.46°W
Report Text: CYQR 200600Z 13011KT 3/8SM R13/3500FT/N FZFG VV002 M09/M10 A2989 RMK FG8 FROIN SLP162
Loading
Personal Weather Stations






























Interactive Weather Map New forecast layout! Learn more

10-Day Weather Forecast

Advertisements
Track Severe Weather on mobile